Terminal Aerodrome Forecast
Issued by NWS

Home | Current Version | Previous Version | Text Only | Print | Product List | Glossary On
Versions: 1 2 3 4 5 6 7 8 9 10 11 12 13 14 15 16 17 18 19 20 21 22
000
FTAK31 PAJN 291100
TAFAJN
TAF
PAJN 291130Z 2912/3012 07008KT 6SM -SHRA BR BKN025 OVC050
     FM291800 10010KT P6SM -SHRA SCT025 OVC050
     FM300000 12010KT P6SM -SHRA OVC050
     FM300600 09006KT P6SM -SHRA OVC050=

USA.gov is the U.S. government's official web portal to all federal, state and local government web resources and services.